Time,TemperatureF,DewpointF,PressureIn,WindDirection,WindDirectionDegrees,WindSpeedMPH,WindSpeedGustMPH,Humidity,HourlyPrecipIn,Conditions,Clouds,dailyrainin,SolarRadiationWatts/m^2,SoftwareType,DateUTC
2013-12-17 00:02:00,66.7,57.4,29.99,NNE,22,0.3,1.2,72,0.00,RA,,0.00,0.0,WeatherDisplay:10.37,2013-12-17 10:02:00,
2013-12-17 00:07:00,66.5,57.2,29.99,NNE,13,1.5,3.5,72,0.00,RA,,0.00,0.0,WeatherDisplay:10.37,2013-12-17 10:07:00,
2013-12-17 00:12:00,66.4,57.5,29.99,NNE,13,1.4,3.5,73,0.00,CLR,,0.00,0.0,WeatherDisplay:10.37,2013-12-17 10:12:00,
2013-12-17 00:17:00,66.2,57.3,29.99,NNE,19,2.6,4.6,73,0.00,CLR,,0.00,0.0,WeatherDisplay:10.37,2013-12-17 10:17:00,
2013-12-17 00:22:00,66.2,57.7,29.99,North,360,1.1,3.5,74,0.00,CLR,,0.00,0.0,WeatherDisplay:10.37,2013-12-17 10:22:00,
2013-12-17 00:27:00,66.1,57.6,29.99,North,360,1.4,2.3,74,0.00,CLR,,0.00,0.0,WeatherDisplay:10.37,2013-12-17 10:27:00,
2013-12-17 00:32:00,65.8,56.9,29.99,North,360,0.4,3.5,73,0.00,CLR,,0.00,0.0,WeatherDisplay:10.37,2013-12-17 10:32:00,
2013-12-17 00:37:00,65.6,57.1,29.99,North,360,0.9,2.3,74,0.00,CLR,,0.00,0.0,WeatherDisplay:10.37,2013-12-17 10:37:00,
2013-12-17 00:42:00,65.4,57.3,29.99,North,360,1.5,3.5,75,0.00,CLR,,0.00,0.0,WeatherDisplay:10.37,2013-12-17 10:42:00,
2013-12-17 00:47:00,65.6,57.8,29.99,NNE,13,1.1,3.5,76,0.00,CLR,,0.00,0.0,WeatherDisplay:10.37,2013-12-17 10:47:00,
2013-12-17 00:52:00,65.8,58.0,29.98,NNW,344,1.8,3.5,76,0.00,CLR,,0.00,0.0,WeatherDisplay:10.37,2013-12-17 10:52:00,
2013-12-17 00:57:00,65.9,58.1,29.99,NNW,346,1.0,2.3,76,0.00,CLR,,0.00,0.0,WeatherDisplay:10.37,2013-12-17 10:57:00,
2013-12-17 01:02:00,66.1,58.7,29.99,NE,36,1.3,3.5,77,0.00,CLR,,0.00,0.0,WeatherDisplay:10.37,2013-12-17 11:02:00,
2013-12-17 01:07:00,66.2,58.4,30.00,NNE,30,1.1,3.5,76,0.00,CLR,,0.00,0.0,WeatherDisplay:10.37,2013-12-17 11:07:00,
2013-12-17 01:12:00,65.9,58.1,29.99,North,350,1.6,3.5,76,0.00,CLR,,0.00,0.0,WeatherDisplay:10.37,2013-12-17 11:12:00,
2013-12-17 01:17:00,65.5,57.7,29.99,NNW,348,2.0,3.5,76,0.00,CLR,,0.00,0.0,WeatherDisplay:10.37,2013-12-17 11:17:00,
2013-12-17 01:22:00,65.2,57.4,29.99,North,349,2.0,2.3,76,0.00,CLR,,0.00,0.0,WeatherDisplay:10.37,2013-12-17 11:22:00,
2013-12-17 01:27:00,65.0,57.6,30.00,North,349,2.4,3.5,77,0.00,CLR,,0.00,0.0,WeatherDisplay:10.37,2013-12-17 11:27:00,
2013-12-17 01:32:00,64.9,57.5,30.00,North,350,1.9,4.6,77,0.00,CLR,,0.00,0.0,WeatherDisplay:10.37,2013-12-17 11:32:00,
2013-12-17 01:37:00,65.2,58.2,29.99,NNE,28,2.4,8.1,78,0.00,CLR,,0.00,0.0,WeatherDisplay:10.37,2013-12-17 11:37:00,
2013-12-17 01:42:00,65.7,59.0,30.00,North,5,2.6,8.1,79,0.00,CLR,,0.00,0.0,WeatherDisplay:10.37,2013-12-17 11:42:00,
2013-12-17 01:47:00,66.3,59.9,30.00,North,355,1.6,4.6,80,0.00,CLR,,0.00,0.0,WeatherDisplay:10.37,2013-12-17 11:47:00,
2013-12-17 01:52:00,66.8,60.4,30.00,North,355,3.6,5.8,80,0.00,CLR,,0.00,0.0,WeatherDisplay:10.37,2013-12-17 11:52:00,
2013-12-17 01:57:00,67.2,60.8,29.99,North,5,2.4,4.6,80,0.00,CLR,,0.00,0.0,WeatherDisplay:10.37,2013-12-17 11:57:00,
2013-12-17 02:02:00,67.5,61.1,30.00,NW,317,4.1,6.0,80,0.00,CLR,,0.00,0.0,WeatherDisplay:10.37,2013-12-17 12:02:00,
2013-12-17 02:07:00,67.6,60.9,29.99,NNE,17,2.9,5.8,79,0.00,CLR,,0.00,0.0,WeatherDisplay:10.37,2013-12-17 12:07:00,
2013-12-17 02:12:00,67.7,60.6,29.99,NNE,16,4.9,9.2,78,0.00,CLR,,0.00,0.0,WeatherDisplay:10.37,2013-12-17 12:12:00,
2013-12-17 02:17:00,67.7,60.2,29.99,North,360,3.6,8.1,77,0.00,CLR,,0.00,0.0,WeatherDisplay:10.37,2013-12-17 12:17:00,
2013-12-17 02:22:00,67.9,60.1,29.99,NNE,17,0.0,1.2,76,0.00,CLR,,0.00,0.0,WeatherDisplay:10.37,2013-12-17 12:22:00,
2013-12-17 02:27:00,67.8,60.0,29.99,NNE,30,1.5,3.5,76,0.00,CLR,,0.00,0.0,WeatherDisplay:10.37,2013-12-17 12:27:00,
2013-12-17 02:32:00,67.7,59.9,29.98,NNE,19,2.3,4.0,76,0.00,CLR,,0.00,0.0,WeatherDisplay:10.37,2013-12-17 12:32:00,
2013-12-17 02:37:00,67.6,59.8,29.98,ENE,58,2.2,3.5,76,0.00,CLR,,0.00,0.0,WeatherDisplay:10.37,2013-12-17 12:37:00,
2013-12-17 02:42:00,67.8,60.7,29.99,ENE,59,4.3,8.1,78,0.00,CLR,,0.00,0.0,WeatherDisplay:10.37,2013-12-17 12:42:00,
2013-12-17 02:47:00,67.9,61.1,29.99,NNW,348,5.0,8.1,79,0.00,CLR,,0.00,0.0,WeatherDisplay:10.37,2013-12-17 12:47:00,
2013-12-17 02:52:00,68.0,61.6,29.99,NNE,13,4.6,10.4,80,0.00,CLR,,0.00,0.0,WeatherDisplay:10.37,2013-12-17 12:52:00,
2013-12-17 02:57:00,67.9,61.5,29.99,NE,38,2.6,4.0,80,0.00,CLR,,0.00,0.0,WeatherDisplay:10.37,2013-12-17 12:57:00,
2013-12-17 03:02:00,67.9,61.9,29.98,NNW,341,4.9,9.2,81,0.00,CLR,,0.00,0.0,WeatherDisplay:10.37,2013-12-17 13:02:00,
2013-12-17 03:07:00,67.8,61.8,29.99,NNE,17,4.4,10.4,81,0.00,CLR,,0.00,0.0,WeatherDisplay:10.37,2013-12-17 13:07:00,
2013-12-17 03:12:00,67.7,61.7,29.99,NNE,24,2.5,8.1,81,0.00,CLR,,0.00,0.0,WeatherDisplay:10.37,2013-12-17 13:12:00,
2013-12-17 03:17:00,67.6,61.9,29.99,North,5,3.5,6.9,82,0.00,CLR,,0.00,0.0,WeatherDisplay:10.37,2013-12-17 13:17:00,
2013-12-17 03:22:00,67.5,61.8,29.98,NNE,20,2.0,4.6,82,0.00,CLR,,0.00,0.0,WeatherDisplay:10.37,2013-12-17 13:22:00,
2013-12-17 03:27:00,67.4,61.7,29.98,NNE,15,2.0,5.0,82,0.00,CLR,,0.00,0.0,WeatherDisplay:10.37,2013-12-17 13:27:00,
2013-12-17 03:32:00,67.3,61.3,29.99,NNW,327,3.4,8.1,81,0.00,CLR,,0.00,0.0,WeatherDisplay:10.37,2013-12-17 13:32:00,
2013-12-17 03:37:00,67.3,61.3,29.99,North,10,6.0,8.1,81,0.00,CLR,,0.00,0.0,WeatherDisplay:10.37,2013-12-17 13:37:00,
2013-12-17 03:42:00,67.3,61.3,29.99,North,5,3.6,9.2,81,0.00,CLR,,0.00,0.0,WeatherDisplay:10.37,2013-12-17 13:42:00,
2013-12-17 03:47:00,67.4,61.4,29.99,NNW,348,5.2,8.1,81,0.00,CLR,,0.00,0.0,WeatherDisplay:10.37,2013-12-17 13:47:00,
2013-12-17 03:52:00,67.5,61.8,29.99,North,5,3.3,3.5,82,0.00,CLR,,0.00,0.0,WeatherDisplay:10.37,2013-12-17 13:52:00,
2013-12-17 03:57:00,67.5,62.2,29.99,NE,56,6.5,9.2,83,0.00,CLR,,0.00,0.0,WeatherDisplay:10.37,2013-12-17 13:57:00,
2013-12-17 04:02:00,67.6,62.3,29.99,NNE,31,2.9,10.4,83,0.00,CLR,,0.00,0.0,WeatherDisplay:10.37,2013-12-17 14:02:00,
2013-12-17 04:07:00,67.5,62.5,29.98,ENE,57,5.1,10.4,84,0.00,CLR,,0.00,0.0,WeatherDisplay:10.37,2013-12-17 14:07:00,
2013-12-17 04:12:00,67.4,62.4,29.99,NE,34,7.0,11.5,84,0.00,CLR,,0.00,0.0,WeatherDisplay:10.37,2013-12-17 14:12:00,
2013-12-17 04:17:00,67.4,62.4,29.98,NE,36,5.5,9.2,84,0.00,CLR,,0.00,0.0,WeatherDisplay:10.37,2013-12-17 14:17:00,
2013-12-17 04:22:00,67.4,62.4,29.99,ENE,65,5.5,11.5,84,0.00,CLR,,0.00,0.0,WeatherDisplay:10.37,2013-12-17 14:22:00,
2013-12-17 04:27:00,67.4,62.4,29.98,NNE,31,5.7,11.5,84,0.00,CLR,,0.00,0.0,WeatherDisplay:10.37,2013-12-17 14:27:00,
2013-12-17 04:32:00,67.5,62.8,29.99,North,9,5.2,11.5,85,0.00,CLR,,0.00,0.0,WeatherDisplay:10.37,2013-12-17 14:32:00,
2013-12-17 04:37:00,67.5,62.8,29.98,NNW,340,6.8,11.5,85,0.00,CLR,,0.00,0.0,WeatherDisplay:10.37,2013-12-17 14:37:00,
2013-12-17 04:42:00,67.5,62.8,29.98,NE,38,6.4,10.4,85,0.00,CLR,,0.00,0.0,WeatherDisplay:10.37,2013-12-17 14:42:00,
2013-12-17 04:47:00,67.4,62.7,29.98,NE,34,7.9,11.5,85,0.00,CLR,,0.00,0.0,WeatherDisplay:10.37,2013-12-17 14:47:00,
2013-12-17 04:52:00,67.4,62.7,29.99,NNE,19,8.4,11.5,85,0.00,CLR,,0.00,0.0,WeatherDisplay:10.37,2013-12-17 14:52:00,
2013-12-17 04:57:00,67.4,63.1,29.98,NNE,31,7.0,10.4,86,0.00,CLR,,0.00,0.0,WeatherDisplay:10.37,2013-12-17 14:57:00,
2013-12-17 05:02:00,67.4,62.7,29.99,NE,42,6.1,11.5,85,0.00,CLR,,0.00,0.0,WeatherDisplay:10.37,2013-12-17 15:02:00,
2013-12-17 05:07:00,67.3,62.6,29.99,NE,39,5.7,11.5,85,0.00,CLR,,0.00,0.0,WeatherDisplay:10.37,2013-12-17 15:07:00,
2013-12-17 05:12:00,67.2,62.5,29.99,NNE,13,5.7,11.5,85,0.00,CLR,,0.00,0.0,WeatherDisplay:10.37,2013-12-17 15:12:00,
2013-12-17 05:17:00,67.3,62.6,29.99,NNW,348,6.0,12.7,85,0.00,CLR,,0.00,0.0,WeatherDisplay:10.37,2013-12-17 15:17:00,
2013-12-17 05:22:00,67.3,62.3,29.99,ENE,78,7.2,13.8,84,0.00,CLR,,0.00,0.0,WeatherDisplay:10.37,2013-12-17 15:22:00,
2013-12-17 05:27:00,67.3,62.3,29.99,ENE,74,7.3,11.5,84,0.00,CLR,,0.00,0.0,WeatherDisplay:10.37,2013-12-17 15:27:00,
2013-12-17 05:32:00,67.3,62.3,29.99,North,349,7.8,13.8,84,0.00,CLR,,0.00,0.0,WeatherDisplay:10.37,2013-12-17 15:32:00,
2013-12-17 05:37:00,67.3,62.0,29.99,NE,36,6.4,11.5,83,0.00,CLR,,0.00,0.0,WeatherDisplay:10.37,2013-12-17 15:37:00,
2013-12-17 05:42:00,67.3,62.0,30.00,North,360,5.6,11.5,83,0.00,CLR,,0.00,0.0,WeatherDisplay:10.37,2013-12-17 15:42:00,
2013-12-17 05:47:00,67.4,62.1,30.00,NNW,342,5.5,12.7,83,0.00,CLR,,0.00,0.0,WeatherDisplay:10.37,2013-12-17 15:47:00,
2013-12-17 05:52:00,67.4,62.1,30.00,NE,53,7.7,11.5,83,0.00,CLR,,0.00,0.0,WeatherDisplay:10.37,2013-12-17 15:52:00,
2013-12-17 05:57:00,67.4,62.1,29.99,NW,325,6.1,11.5,83,0.00,CLR,,0.00,0.0,WeatherDisplay:10.37,2013-12-17 15:57:00,
2013-12-17 06:02:00,67.4,62.1,29.99,NNW,335,5.8,10.4,83,0.00,CLR,,0.00,0.0,WeatherDisplay:10.37,2013-12-17 16:02:00,
2013-12-17 06:07:00,67.4,62.1,30.00,ENE,57,6.4,11.0,83,0.00,CLR,,0.00,0.0,WeatherDisplay:10.37,2013-12-17 16:07:00,
2013-12-17 06:12:00,67.3,62.0,30.00,NE,37,5.7,10.4,83,0.00,CLR,,0.00,0.0,WeatherDisplay:10.37,2013-12-17 16:12:00,
2013-12-17 06:17:00,67.2,61.2,30.00,NNE,17,3.8,6.9,81,0.00,CLR,,0.00,0.0,WeatherDisplay:10.37,2013-12-17 16:17:00,
2013-12-17 06:22:00,67.3,61.3,30.00,NNE,18,6.8,11.5,81,0.00,CLR,,0.00,0.0,WeatherDisplay:10.37,2013-12-17 16:22:00,
2013-12-17 06:27:00,67.5,61.1,30.00,North,355,3.8,8.1,80,0.00,CLR,,0.00,0.0,WeatherDisplay:10.37,2013-12-17 16:27:00,
2013-12-17 06:32:00,67.5,60.8,30.00,NE,34,4.7,8.1,79,0.00,CLR,,0.00,0.0,WeatherDisplay:10.37,2013-12-17 16:32:00,
2013-12-17 06:37:00,67.5,60.8,30.00,NNE,32,3.7,5.8,79,0.00,CLR,,0.00,0.0,WeatherDisplay:10.37,2013-12-17 16:37:00,
2013-12-17 06:42:00,67.4,60.7,30.00,NNE,15,4.7,10.4,79,0.00,CLR,,0.00,0.0,WeatherDisplay:10.37,2013-12-17 16:42:00,
2013-12-17 06:47:00,67.4,60.7,30.00,NE,56,2.2,4.6,79,0.00,CLR,,0.00,0.0,WeatherDisplay:10.37,2013-12-17 16:47:00,
2013-12-17 06:52:00,67.4,60.7,30.00,North,360,3.8,5.8,79,0.00,CLR,,0.00,0.0,WeatherDisplay:10.37,2013-12-17 16:52:00,
2013-12-17 06:57:00,67.4,60.7,30.00,NNE,24,4.9,8.1,79,0.00,CLR,,0.00,0.0,WeatherDisplay:10.37,2013-12-17 16:57:00,
2013-12-17 07:02:00,67.3,60.9,30.00,North,5,4.0,8.1,80,0.00,CLR,,0.00,5.0,WeatherDisplay:10.37,2013-12-17 17:02:00,
2013-12-17 07:07:00,67.3,60.9,30.00,North,355,5.0,11.5,80,0.00,CLR,,0.00,7.0,WeatherDisplay:10.37,2013-12-17 17:07:00,
2013-12-17 07:12:00,67.2,60.8,30.00,North,355,3.2,4.6,80,0.00,SCT,,0.00,11.0,WeatherDisplay:10.37,2013-12-17 17:12:00,
2013-12-17 07:17:00,67.3,61.3,30.01,NNE,16,3.5,9.2,81,0.00,BKN,,0.00,12.0,WeatherDisplay:10.37,2013-12-17 17:17:00,
2013-12-17 07:22:00,67.4,61.4,30.01,ENE,60,3.7,10.4,81,0.00,BKN,,0.00,16.0,WeatherDisplay:10.37,2013-12-17 17:22:00,
2013-12-17 07:27:00,67.5,61.5,30.01,NNE,24,3.1,5.8,81,0.00,BKN,,0.00,19.0,WeatherDisplay:10.37,2013-12-17 17:27:00,
2013-12-17 07:32:00,67.8,61.8,30.01,North,9,4.1,8.1,81,0.00,BKN,,0.00,21.0,WeatherDisplay:10.37,2013-12-17 17:32:00,
2013-12-17 07:37:00,68.0,61.9,30.01,North,360,2.0,4.0,81,0.00,BKN,,0.00,30.0,WeatherDisplay:10.37,2013-12-17 17:37:00,
2013-12-17 07:42:00,68.2,62.1,30.02,NE,48,3.0,6.9,81,0.00,BKN,,0.00,42.0,WeatherDisplay:10.37,2013-12-17 17:42:00,
2013-12-17 07:47:00,68.5,62.4,30.02,NNE,15,3.9,8.1,81,0.00,SCT,,0.00,58.0,WeatherDisplay:10.37,2013-12-17 17:47:00,
2013-12-17 07:52:00,68.7,62.6,30.02,NNE,13,3.1,6.9,81,0.00,SCT,,0.00,69.0,WeatherDisplay:10.37,2013-12-17 17:52:00,
2013-12-17 07:57:00,69.0,62.6,30.02,NE,47,5.9,11.5,80,0.00,CLR,,0.00,90.0,WeatherDisplay:10.37,2013-12-17 17:57:00,
2013-12-17 08:02:00,69.2,62.8,30.02,NNW,348,4.4,10.4,80,0.00,CLR,,0.00,107.0,WeatherDisplay:10.37,2013-12-17 18:02:00,
2013-12-17 08:07:00,69.4,62.6,30.03,North,11,3.5,8.1,79,0.00,CLR,,0.00,130.0,WeatherDisplay:10.37,2013-12-17 18:07:00,
2013-12-17 08:12:00,69.6,62.4,30.03,NE,43,3.7,5.8,78,0.00,CLR,,0.00,149.0,WeatherDisplay:10.37,2013-12-17 18:12:00,
2013-12-17 08:17:00,69.8,62.6,30.03,North,360,3.7,6.9,78,0.00,CLR,,0.00,171.0,WeatherDisplay:10.37,2013-12-17 18:17:00,
2013-12-17 08:22:00,70.1,62.6,30.03,NNE,26,2.6,5.0,77,0.00,CLR,,0.00,193.0,WeatherDisplay:10.37,2013-12-17 18:22:00,
2013-12-17 08:27:00,70.3,62.7,30.03,NNE,33,2.7,4.6,77,0.00,CLR,,0.00,211.0,WeatherDisplay:10.37,2013-12-17 18:27:00,
2013-12-17 08:32:00,70.6,62.3,30.04,ENE,65,4.2,8.1,75,0.00,CLR,,0.00,232.0,WeatherDisplay:10.37,2013-12-17 18:32:00,
2013-12-17 08:37:00,70.7,62.4,30.04,NE,46,2.7,5.0,75,0.00,CLR,,0.00,251.0,WeatherDisplay:10.37,2013-12-17 18:37:00,
2013-12-17 08:42:00,70.9,62.6,30.03,North,360,2.8,4.6,75,0.00,CLR,,0.00,269.0,WeatherDisplay:10.37,2013-12-17 18:42:00,
2013-12-17 08:47:00,71.0,62.3,30.04,NNE,26,6.2,11.0,74,0.00,CLR,,0.00,287.0,WeatherDisplay:10.37,2013-12-17 18:47:00,
2013-12-17 08:52:00,71.1,62.0,30.04,ENE,78,7.2,11.5,73,0.00,CLR,,0.00,301.0,WeatherDisplay:10.37,2013-12-17 18:52:00,
2013-12-17 08:57:00,71.3,62.6,30.04,ENE,74,4.4,10.4,74,0.00,CLR,,0.00,320.0,WeatherDisplay:10.37,2013-12-17 18:57:00,
2013-12-17 09:02:00,71.4,62.3,30.04,North,360,4.7,9.0,73,0.00,CLR,,0.00,334.0,WeatherDisplay:10.37,2013-12-17 19:02:00,
2013-12-17 09:07:00,71.5,62.8,30.04,NE,40,4.5,9.2,74,0.00,CLR,,0.00,350.0,WeatherDisplay:10.37,2013-12-17 19:07:00,
2013-12-17 09:12:00,71.6,62.9,30.04,ENE,65,3.9,8.1,74,0.00,CLR,,0.00,362.0,WeatherDisplay:10.37,2013-12-17 19:12:00,
2013-12-17 09:17:00,71.7,63.0,30.04,NE,43,7.0,11.5,74,0.00,CLR,,0.00,380.0,WeatherDisplay:10.37,2013-12-17 19:17:00,
2013-12-17 09:22:00,71.7,63.4,30.04,ENE,73,3.7,9.2,75,0.00,CLR,,0.00,396.0,WeatherDisplay:10.37,2013-12-17 19:22:00,
2013-12-17 09:27:00,71.9,63.2,30.04,ENE,62,4.2,10.4,74,0.00,CLR,,0.00,413.0,WeatherDisplay:10.37,2013-12-17 19:27:00,
2013-12-17 09:32:00,72.0,63.3,30.04,NE,41,4.7,8.1,74,0.00,CLR,,0.00,422.0,WeatherDisplay:10.37,2013-12-17 19:32:00,
2013-12-17 09:37:00,72.2,63.4,30.05,NNW,344,4.9,9.2,74,0.00,CLR,,0.00,434.0,WeatherDisplay:10.37,2013-12-17 19:37:00,
2013-12-17 09:42:00,72.4,63.6,30.04,NE,43,3.7,7.0,74,0.00,CLR,,0.00,454.0,WeatherDisplay:10.37,2013-12-17 19:42:00,
2013-12-17 09:47:00,72.6,63.1,30.04,NE,42,3.7,8.1,72,0.00,CLR,,0.00,466.0,WeatherDisplay:10.37,2013-12-17 19:47:00,
2013-12-17 09:52:00,72.7,63.1,30.04,ENE,57,2.3,4.6,72,0.00,CLR,,0.00,480.0,WeatherDisplay:10.37,2013-12-17 19:52:00,
2013-12-17 09:57:00,72.9,63.3,30.04,North,5,2.7,6.9,72,0.00,CLR,,0.00,492.0,WeatherDisplay:10.37,2013-12-17 19:57:00,
2013-12-17 10:02:00,73.3,63.7,30.04,NNE,33,2.2,3.5,72,0.00,CLR,,0.00,506.0,WeatherDisplay:10.37,2013-12-17 20:02:00,
2013-12-17 10:07:00,73.4,63.4,30.04,NE,53,2.5,5.8,71,0.00,CLR,,0.00,517.0,WeatherDisplay:10.37,2013-12-17 20:07:00,
2013-12-17 10:12:00,73.6,63.2,30.04,NE,50,4.2,5.8,70,0.00,CLR,,0.00,531.0,WeatherDisplay:10.37,2013-12-17 20:12:00,
2013-12-17 10:17:00,73.7,63.3,30.04,ESE,123,3.0,6.9,70,0.00,CLR,,0.00,541.0,WeatherDisplay:10.37,2013-12-17 20:17:00,
2013-12-17 10:22:00,73.9,63.5,30.04,ENE,63,2.9,6.9,70,0.00,CLR,,0.00,552.0,WeatherDisplay:10.37,2013-12-17 20:22:00,
2013-12-17 10:27:00,74.0,63.6,30.04,NE,54,4.6,9.2,70,0.00,CLR,,0.00,564.0,WeatherDisplay:10.37,2013-12-17 20:27:00,
2013-12-17 10:32:00,74.1,62.9,30.04,NE,53,3.3,6.9,68,0.00,CLR,,0.00,578.0,WeatherDisplay:10.37,2013-12-17 20:32:00,
2013-12-17 10:37:00,74.2,63.4,30.04,ENE,67,3.2,4.6,69,0.00,CLR,,0.00,589.0,WeatherDisplay:10.37,2013-12-17 20:37:00,
2013-12-17 10:42:00,74.6,63.3,30.04,ENE,61,0.6,2.3,68,0.00,CLR,,0.00,598.0,WeatherDisplay:10.37,2013-12-17 20:42:00,
2013-12-17 10:47:00,74.9,63.2,30.04,NW,320,3.6,5.8,67,0.00,CLR,,0.00,608.0,WeatherDisplay:10.37,2013-12-17 20:47:00,
2013-12-17 10:52:00,75.1,63.0,30.03,ENE,69,2.5,5.8,66,0.00,CLR,,0.00,617.0,WeatherDisplay:10.37,2013-12-17 20:52:00,
2013-12-17 10:57:00,75.4,63.2,30.03,NE,46,3.9,9.2,66,0.00,CLR,,0.00,626.0,WeatherDisplay:10.37,2013-12-17 20:57:00,
2013-12-17 11:02:00,75.6,63.0,30.03,NNE,24,2.0,6.9,65,0.00,CLR,,0.00,633.0,WeatherDisplay:10.37,2013-12-17 21:02:00,
2013-12-17 11:07:00,76.0,63.8,30.03,NNE,22,1.8,4.6,66,0.00,CLR,,0.00,640.0,WeatherDisplay:10.37,2013-12-17 21:07:00,
2013-12-17 11:12:00,76.3,62.8,30.03,NE,54,3.7,8.1,63,0.00,CLR,,0.00,650.0,WeatherDisplay:10.37,2013-12-17 21:12:00,
2013-12-17 11:17:00,76.4,62.9,30.03,NE,53,1.4,4.6,63,0.00,CLR,,0.00,656.0,WeatherDisplay:10.37,2013-12-17 21:17:00,
2013-12-17 11:22:00,76.5,62.0,30.03,ENE,71,2.1,8.1,61,0.00,CLR,,0.00,661.0,WeatherDisplay:10.37,2013-12-17 21:22:00,
2013-12-17 11:27:00,76.5,62.0,30.03,East,85,2.8,3.5,61,0.00,CLR,,0.00,668.0,WeatherDisplay:10.37,2013-12-17 21:27:00,
2013-12-17 11:32:00,76.6,62.6,30.03,NNW,336,2.2,4.6,62,0.00,CLR,,0.00,673.0,WeatherDisplay:10.37,2013-12-17 21:32:00,
2013-12-17 11:37:00,76.6,62.1,30.02,ESE,108,2.0,8.1,61,0.00,CLR,,0.00,679.0,WeatherDisplay:10.37,2013-12-17 21:37:00,
2013-12-17 11:42:00,76.6,62.1,30.02,ENE,72,0.7,2.3,61,0.00,CLR,,0.00,687.0,WeatherDisplay:10.37,2013-12-17 21:42:00,
2013-12-17 11:47:00,76.8,61.9,30.02,ESE,107,2.3,4.0,60,0.00,CLR,,0.00,691.0,WeatherDisplay:10.37,2013-12-17 21:47:00,
2013-12-17 11:52:00,77.0,62.5,30.02,NNW,345,0.2,1.2,61,0.00,CLR,,0.00,694.0,WeatherDisplay:10.37,2013-12-17 21:52:00,
2013-12-17 11:57:00,77.2,62.2,30.01,ENE,60,2.8,3.5,60,0.00,CLR,,0.00,696.0,WeatherDisplay:10.37,2013-12-17 21:57:00,
2013-12-17 12:02:00,77.3,62.3,30.01,ENE,57,0.4,3.5,60,0.00,CLR,,0.00,701.0,WeatherDisplay:10.37,2013-12-17 22:02:00,
2013-12-17 12:07:00,77.5,63.0,30.01,ENE,67,4.9,11.5,61,0.00,CLR,,0.00,705.0,WeatherDisplay:10.37,2013-12-17 22:07:00,
2013-12-17 12:12:00,77.7,63.2,30.01,SE,139,4.9,9.2,61,0.00,CLR,,0.00,707.0,WeatherDisplay:10.37,2013-12-17 22:12:00,
2013-12-17 12:16:00,77.7,62.2,30.00,ENE,59,3.8,8.1,59,0.00,CLR,,0.00,717.0,WeatherDisplay:10.37,2013-12-17 22:16:00,
2013-12-17 12:21:00,77.9,62.9,30.00,ESE,111,2.0,3.0,60,0.00,CLR,,0.00,735.0,WeatherDisplay:10.37,2013-12-17 22:21:00,
2013-12-17 12:26:00,78.0,62.5,30.00,SE,129,3.3,9.2,59,0.00,CLR,,0.00,740.0,WeatherDisplay:10.37,2013-12-17 22:26:00,
2013-12-17 12:31:00,78.3,63.3,30.00,ENE,57,3.0,6.9,60,0.00,CLR,,0.00,728.0,WeatherDisplay:10.37,2013-12-17 22:31:00,
2013-12-17 12:36:00,78.4,61.9,30.00,North,11,0.8,2.3,57,0.00,CLR,,0.00,737.0,WeatherDisplay:10.37,2013-12-17 22:36:00,
2013-12-17 12:41:00,78.7,62.2,29.99,ENE,59,0.0,1.2,57,0.00,CLR,,0.00,761.0,WeatherDisplay:10.37,2013-12-17 22:41:00,
2013-12-17 12:46:00,78.8,62.3,29.99,ENE,70,2.5,3.5,57,0.00,CLR,,0.00,758.0,WeatherDisplay:10.37,2013-12-17 22:46:00,
2013-12-17 12:51:00,78.7,61.7,29.99,East,89,1.5,3.5,56,0.00,CLR,,0.00,740.0,WeatherDisplay:10.37,2013-12-17 22:51:00,
2013-12-17 12:56:00,78.6,62.1,29.98,North,355,0.4,3.5,57,0.00,OVC,,0.00,169.0,WeatherDisplay:10.37,2013-12-17 22:56:00,
2013-12-17 13:01:00,78.4,64.3,29.98,SSW,202,1.1,4.6,62,0.00,CLR,,0.00,800.0,WeatherDisplay:10.37,2013-12-17 23:01:00,
2013-12-17 13:06:00,78.2,64.6,29.98,SSW,209,1.9,3.5,63,0.00,CLR,,0.00,780.0,WeatherDisplay:10.37,2013-12-17 23:06:00,
2013-12-17 13:11:00,78.1,65.8,29.97,SSE,164,0.9,1.2,66,0.00,CLR,,0.00,812.0,WeatherDisplay:10.37,2013-12-17 23:11:00,
2013-12-17 13:16:00,77.9,64.7,29.97,SSW,205,2.0,5.8,64,0.00,BKN,,0.00,262.0,WeatherDisplay:10.37,2013-12-17 23:16:00,
2013-12-17 13:21:00,77.7,65.0,29.96,SSW,193,4.4,6.9,65,0.00,CLR,,0.00,837.0,WeatherDisplay:10.37,2013-12-17 23:21:00,
2013-12-17 13:26:00,77.9,65.2,29.96,South,188,2.8,4.0,65,0.00,CLR,,0.00,868.0,WeatherDisplay:10.37,2013-12-17 23:26:00,
2013-12-17 13:31:00,78.1,65.4,29.96,SW,230,4.0,10.4,65,0.00,CLR,,0.00,865.0,WeatherDisplay:10.37,2013-12-17 23:31:00,
2013-12-17 13:36:00,78.0,65.3,29.96,SW,225,3.1,6.9,65,0.00,CLR,,0.00,881.0,WeatherDisplay:10.37,2013-12-17 23:36:00,
2013-12-17 13:41:00,78.0,65.3,29.96,SW,225,3.6,6.9,65,0.00,CLR,,0.00,812.0,WeatherDisplay:10.37,2013-12-17 23:41:00,
2013-12-17 13:46:00,78.0,65.3,29.96,SW,224,4.9,8.1,65,0.00,CLR,,0.00,814.0,WeatherDisplay:10.37,2013-12-17 23:46:00,
2013-12-17 13:51:00,78.2,65.5,29.95,SSW,196,2.7,4.6,65,0.00,SCT,,0.00,380.0,WeatherDisplay:10.37,2013-12-17 23:51:00,
2013-12-17 13:56:00,78.0,65.3,29.96,SSW,197,5.3,8.1,65,0.00,FEW,,0.00,854.0,WeatherDisplay:10.37,2013-12-17 23:56:00,
2013-12-17 14:01:00,77.9,65.6,29.96,South,186,4.7,6.9,66,0.00,CLR,,0.00,847.0,WeatherDisplay:10.37,2013-12-18 00:01:00,
2013-12-17 14:06:00,77.6,65.3,29.95,SSW,211,5.1,8.0,66,0.00,CLR,,0.00,835.0,WeatherDisplay:10.37,2013-12-18 00:06:00,
2013-12-17 14:11:00,77.6,66.2,29.95,SW,229,1.0,6.9,68,0.00,CLR,,0.00,786.0,WeatherDisplay:10.37,2013-12-18 00:11:00,
2013-12-17 14:16:00,77.7,65.4,29.95,SW,217,3.6,6.9,66,0.00,CLR,,0.00,717.0,WeatherDisplay:10.37,2013-12-18 00:16:00,
2013-12-17 14:21:00,77.8,66.0,29.95,WSW,246,1.5,3.5,67,0.00,CLR,,0.00,680.0,WeatherDisplay:10.37,2013-12-18 00:21:00,
2013-12-17 14:26:00,78.1,65.8,29.95,WSW,240,4.0,5.8,66,0.00,CLR,,0.00,612.0,WeatherDisplay:10.37,2013-12-18 00:26:00,
2013-12-17 14:31:00,78.0,65.7,29.95,WSW,240,3.3,4.6,66,0.00,CLR,,0.00,645.0,WeatherDisplay:10.37,2013-12-18 00:31:00,
2013-12-17 14:36:00,78.0,65.7,29.95,SSW,205,3.5,8.0,66,0.00,CLR,,0.00,642.0,WeatherDisplay:10.37,2013-12-18 00:36:00,
2013-12-17 14:41:00,77.9,65.6,29.95,SW,228,3.6,6.9,66,0.00,CLR,,0.00,666.0,WeatherDisplay:10.37,2013-12-18 00:41:00,
2013-12-17 14:46:00,77.9,66.1,29.95,South,173,1.8,4.6,67,0.00,CLR,,0.00,650.0,WeatherDisplay:10.37,2013-12-18 00:46:00,
2013-12-17 14:51:00,78.0,66.6,29.95,West,281,1.4,4.0,68,0.00,CLR,,0.00,671.0,WeatherDisplay:10.37,2013-12-18 00:51:00,
2013-12-17 14:56:00,78.2,66.8,29.95,WNW,296,3.2,4.6,68,0.00,CLR,,0.00,657.0,WeatherDisplay:10.37,2013-12-18 00:56:00,
2013-12-17 15:01:00,78.4,66.1,29.95,WSW,255,2.3,3.5,66,0.00,CLR,,0.00,666.0,WeatherDisplay:10.37,2013-12-18 01:01:00,
2013-12-17 15:06:00,78.6,66.7,29.95,SSW,209,4.0,8.1,67,0.00,CLR,,0.00,649.0,WeatherDisplay:10.37,2013-12-18 01:06:00,
2013-12-17 15:11:00,78.6,66.3,29.95,West,269,1.6,4.6,66,0.00,CLR,,0.00,606.0,WeatherDisplay:10.37,2013-12-18 01:11:00,
2013-12-17 15:16:00,78.3,66.0,29.95,SW,232,4.4,6.9,66,0.00,BKN,,0.00,192.0,WeatherDisplay:10.37,2013-12-18 01:16:00,
2013-12-17 15:21:00,77.8,66.4,29.95,South,186,1.7,3.5,68,0.00,SCT,,0.00,362.0,WeatherDisplay:10.37,2013-12-18 01:21:00,
2013-12-17 15:26:00,77.5,66.1,29.95,WSW,248,4.2,6.9,68,0.00,CLR,,0.00,334.0,WeatherDisplay:10.37,2013-12-18 01:26:00,
2013-12-17 15:31:00,77.3,65.5,29.95,SW,218,5.2,8.1,67,0.00,CLR,,0.00,487.0,WeatherDisplay:10.37,2013-12-18 01:31:00,
2013-12-17 15:36:00,76.7,65.3,29.96,SW,215,3.5,5.8,68,0.00,SCT,,0.00,181.0,WeatherDisplay:10.37,2013-12-18 01:36:00,
2013-12-17 15:41:00,76.2,65.7,29.96,West,259,0.8,3.5,70,0.00,SCT,,0.00,193.0,WeatherDisplay:10.37,2013-12-18 01:41:00,
2013-12-17 15:46:00,75.9,65.4,29.96,WSW,242,1.3,5.0,70,0.00,BKN,,0.00,153.0,WeatherDisplay:10.37,2013-12-18 01:46:00,
2013-12-17 15:51:00,75.5,65.0,29.96,West,263,2.4,4.6,70,0.00,SCT,,0.00,172.0,WeatherDisplay:10.37,2013-12-18 01:51:00,
2013-12-17 15:56:00,75.3,65.2,29.96,West,273,1.4,3.5,71,0.00,FEW,,0.00,190.0,WeatherDisplay:10.37,2013-12-18 01:56:00,
2013-12-17 16:01:00,75.3,65.6,29.96,SW,225,1.7,2.3,72,0.00,CLR,,0.00,461.0,WeatherDisplay:10.37,2013-12-18 02:01:00,
2013-12-17 16:06:00,75.5,65.8,29.96,NW,315,1.9,3.5,72,0.00,CLR,,0.00,206.0,WeatherDisplay:10.37,2013-12-18 02:06:00,
2013-12-17 16:11:00,75.7,66.0,29.96,West,265,2.2,3.5,72,0.00,CLR,,0.00,439.0,WeatherDisplay:10.37,2013-12-18 02:11:00,
2013-12-17 16:16:00,76.0,65.9,29.96,SW,217,1.8,3.5,71,0.00,CLR,,0.00,214.0,WeatherDisplay:10.37,2013-12-18 02:16:00,
2013-12-17 16:21:00,76.0,65.9,29.96,SW,229,2.0,5.8,71,0.00,CLR,,0.00,171.0,WeatherDisplay:10.37,2013-12-18 02:21:00,
2013-12-17 16:26:00,75.8,65.7,29.96,West,272,3.6,6.9,71,0.00,CLR,,0.00,325.0,WeatherDisplay:10.37,2013-12-18 02:26:00,
2013-12-17 16:31:00,75.7,65.6,29.96,WSW,242,2.9,5.0,71,0.00,CLR,,0.00,334.0,WeatherDisplay:10.37,2013-12-18 02:31:00,
2013-12-17 16:36:00,75.9,65.8,29.96,SW,229,2.7,8.0,71,0.00,CLR,,0.00,322.0,WeatherDisplay:10.37,2013-12-18 02:36:00,
2013-12-17 16:41:00,75.8,65.7,29.96,WNW,297,1.8,3.5,71,0.00,CLR,,0.00,350.0,WeatherDisplay:10.37,2013-12-18 02:41:00,
2013-12-17 16:46:00,75.8,65.7,29.96,ESE,107,3.0,8.1,71,0.00,CLR,,0.00,251.0,WeatherDisplay:10.37,2013-12-18 02:46:00,
2013-12-17 16:51:00,75.5,65.0,29.96,ESE,107,3.5,7.0,70,0.00,CLR,,0.00,172.0,WeatherDisplay:10.37,2013-12-18 02:51:00,
2013-12-17 16:56:00,75.2,65.1,29.96,NE,45,0.4,1.2,71,0.00,CLR,,0.00,125.0,WeatherDisplay:10.37,2013-12-18 02:56:00,
2013-12-17 17:01:00,74.9,64.5,29.97,NE,52,2.2,3.5,70,0.00,CLR,,0.00,91.0,WeatherDisplay:10.37,2013-12-18 03:01:00,
2013-12-17 17:06:00,74.8,64.8,29.97,NE,56,0.8,1.2,71,0.00,FEW,,0.00,70.0,WeatherDisplay:10.37,2013-12-18 03:06:00,
2013-12-17 17:11:00,74.6,64.6,29.97,NNE,15,0.5,2.3,71,0.00,CLR,,0.00,26.0,WeatherDisplay:10.37,2013-12-18 03:11:00,
2013-12-17 17:16:00,74.4,64.4,29.97,NE,34,1.3,3.0,71,0.00,CLR,,0.00,25.0,WeatherDisplay:10.37,2013-12-18 03:16:00,
2013-12-17 17:21:00,74.0,64.0,29.97,North,360,3.0,5.0,71,0.00,CLR,,0.00,21.0,WeatherDisplay:10.37,2013-12-18 03:21:00,
2013-12-17 17:26:00,73.5,63.9,29.97,NE,37,1.1,3.5,72,0.00,BKN,,0.00,21.0,WeatherDisplay:10.37,2013-12-18 03:26:00,
2013-12-17 17:31:00,73.2,63.6,29.98,ENE,73,0.3,3.5,72,0.00,BKN,,0.00,18.0,WeatherDisplay:10.37,2013-12-18 03:31:00,
2013-12-17 17:36:00,72.9,63.7,29.98,North,350,2.2,3.5,73,0.00,BKN,,0.00,16.0,WeatherDisplay:10.37,2013-12-18 03:36:00,
2013-12-17 17:41:00,72.5,63.7,29.98,North,9,1.9,4.6,74,0.00,BKN,,0.00,12.0,WeatherDisplay:10.37,2013-12-18 03:41:00,
2013-12-17 17:46:00,72.2,63.4,29.98,NNE,22,2.1,3.5,74,0.00,CLR,,0.00,11.0,WeatherDisplay:10.37,2013-12-18 03:46:00,
2013-12-17 17:51:00,71.9,63.2,29.99,NE,55,1.7,2.3,74,0.00,CLR,,0.00,5.0,WeatherDisplay:10.37,2013-12-18 03:51:00,
2013-12-17 17:56:00,71.6,63.3,29.99,NNE,13,0.8,3.5,75,0.00,CLR,,0.00,0.0,WeatherDisplay:10.37,2013-12-18 03:56:00,
2013-12-17 18:01:00,71.4,63.1,29.99,NNE,15,2.2,3.5,75,0.00,CLR,,0.00,0.0,WeatherDisplay:10.37,2013-12-18 04:01:00,
2013-12-17 18:06:00,71.1,62.8,29.99,North,11,2.4,5.0,75,0.00,CLR,,0.00,0.0,WeatherDisplay:10.37,2013-12-18 04:06:00,
2013-12-17 18:11:00,70.8,62.9,29.99,North,11,1.9,7.0,76,0.00,CLR,,0.00,0.0,WeatherDisplay:10.37,2013-12-18 04:11:00,
2013-12-17 18:16:00,70.6,62.7,30.00,NE,38,2.7,4.6,76,0.00,CLR,,0.00,0.0,WeatherDisplay:10.37,2013-12-18 04:16:00,
2013-12-17 18:21:00,70.6,62.7,30.00,North,9,1.4,3.5,76,0.00,CLR,,0.00,0.0,WeatherDisplay:10.37,2013-12-18 04:21:00,
2013-12-17 18:26:00,70.4,62.8,30.00,North,5,0.1,2.3,77,0.00,CLR,,0.00,0.0,WeatherDisplay:10.37,2013-12-18 04:26:00,
2013-12-17 18:31:00,70.2,62.6,30.01,North,360,1.2,3.5,77,0.00,CLR,,0.00,0.0,WeatherDisplay:10.37,2013-12-18 04:31:00,
2013-12-17 18:36:00,69.9,62.4,30.00,North,360,2.7,4.6,77,0.00,CLR,,0.00,0.0,WeatherDisplay:10.37,2013-12-18 04:36:00,
2013-12-17 18:41:00,69.6,62.1,30.01,NNE,33,0.5,3.5,77,0.00,CLR,,0.00,0.0,WeatherDisplay:10.37,2013-12-18 04:41:00,
2013-12-17 18:46:00,69.4,62.2,30.01,NNE,25,1.5,3.5,78,0.00,CLR,,0.00,0.0,WeatherDisplay:10.37,2013-12-18 04:46:00,
2013-12-17 18:51:00,69.3,62.1,30.01,North,355,1.1,4.0,78,0.00,CLR,,0.00,0.0,WeatherDisplay:10.37,2013-12-18 04:51:00,
2013-12-17 18:56:00,69.1,61.9,30.01,NNE,21,0.7,3.0,78,0.00,CLR,,0.00,0.0,WeatherDisplay:10.37,2013-12-18 04:56:00,
2013-12-17 19:01:00,69.0,61.9,30.01,North,360,0.1,1.2,78,0.00,CLR,,0.00,0.0,WeatherDisplay:10.37,2013-12-18 05:01:00,
2013-12-17 19:06:00,68.8,61.7,30.01,North,360,0.2,1.2,78,0.00,CLR,,0.00,0.0,WeatherDisplay:10.37,2013-12-18 05:06:00,
2013-12-17 19:11:00,68.6,61.5,30.01,North,360,0.6,1.2,78,0.00,CLR,,0.00,0.0,WeatherDisplay:10.37,2013-12-18 05:11:00,
2013-12-17 19:16:00,68.4,61.3,30.02,North,11,1.7,3.5,78,0.00,CLR,,0.00,0.0,WeatherDisplay:10.37,2013-12-18 05:16:00,
2013-12-17 19:21:00,68.3,61.5,30.02,North,11,0.0,2.3,79,0.00,CLR,,0.00,0.0,WeatherDisplay:10.37,2013-12-18 05:21:00,
2013-12-17 19:26:00,68.3,61.5,30.02,NNE,26,2.6,5.0,79,0.00,CLR,,0.00,0.0,WeatherDisplay:10.37,2013-12-18 05:26:00,
2013-12-17 19:31:00,68.3,61.5,30.02,NE,40,1.3,3.5,79,0.00,CLR,,0.00,0.0,WeatherDisplay:10.37,2013-12-18 05:31:00,
2013-12-17 19:36:00,68.4,62.0,30.02,NE,53,4.1,10.4,80,0.00,CLR,,0.00,0.0,WeatherDisplay:10.37,2013-12-18 05:36:00,
2013-12-17 19:41:00,68.5,62.4,30.02,ENE,66,0.0,1.2,81,0.00,CLR,,0.00,0.0,WeatherDisplay:10.37,2013-12-18 05:41:00,
2013-12-17 19:46:00,68.4,62.0,30.02,NE,50,0.9,1.2,80,0.00,CLR,,0.00,0.0,WeatherDisplay:10.37,2013-12-18 05:46:00,
2013-12-17 19:51:00,68.3,62.2,30.03,NNE,22,2.2,3.5,81,0.00,CLR,,0.00,0.0,WeatherDisplay:10.37,2013-12-18 05:51:00,
2013-12-17 19:56:00,68.1,62.0,30.03,NNW,346,1.9,5.0,81,0.00,CLR,,0.00,0.0,WeatherDisplay:10.37,2013-12-18 05:56:00,
2013-12-17 20:01:00,68.1,62.4,30.03,North,355,2.1,6.9,82,0.00,CLR,,0.00,0.0,WeatherDisplay:10.37,2013-12-18 06:01:00,
2013-12-17 20:06:00,68.1,62.4,30.02,North,360,2.6,5.0,82,0.00,CLR,,0.00,0.0,WeatherDisplay:10.37,2013-12-18 06:06:00,
2013-12-17 20:11:00,68.1,62.4,30.03,NNE,28,2.6,3.5,82,0.00,CLR,,0.00,0.0,WeatherDisplay:10.37,2013-12-18 06:11:00,
2013-12-17 20:16:00,68.1,62.7,30.03,NE,51,2.1,5.0,83,0.00,CLR,,0.00,0.0,WeatherDisplay:10.37,2013-12-18 06:16:00,
2013-12-17 20:21:00,68.1,62.7,30.03,ENE,65,3.0,6.9,83,0.00,CLR,,0.00,0.0,WeatherDisplay:10.37,2013-12-18 06:21:00,
2013-12-17 20:26:00,68.1,62.7,30.03,NE,43,5.6,9.2,83,0.00,CLR,,0.00,0.0,WeatherDisplay:10.37,2013-12-18 06:26:00,
2013-12-17 20:31:00,68.1,62.7,30.03,ENE,74,4.0,7.0,83,0.00,CLR,,0.00,0.0,WeatherDisplay:10.37,2013-12-18 06:31:00,
2013-12-17 20:36:00,68.2,62.8,30.03,ENE,58,4.8,6.9,83,0.00,CLR,,0.00,0.0,WeatherDisplay:10.37,2013-12-18 06:36:00,
2013-12-17 20:41:00,68.2,62.8,30.03,NNE,26,4.9,10.4,83,0.00,CLR,,0.00,0.0,WeatherDisplay:10.37,2013-12-18 06:41:00,
2013-12-17 20:46:00,68.1,62.4,30.03,NNE,33,4.6,8.1,82,0.00,CLR,,0.00,0.0,WeatherDisplay:10.37,2013-12-18 06:46:00,
2013-12-17 20:51:00,68.0,62.3,30.03,NE,47,5.5,9.2,82,0.00,CLR,,0.00,0.0,WeatherDisplay:10.37,2013-12-18 06:51:00,
2013-12-17 20:56:00,68.0,62.6,30.03,NE,49,1.9,9.2,83,0.00,CLR,,0.00,0.0,WeatherDisplay:10.37,2013-12-18 06:56:00,
2013-12-17 21:01:00,67.9,62.2,30.03,NNE,26,3.1,8.1,82,0.00,CLR,,0.00,0.0,WeatherDisplay:10.37,2013-12-18 07:01:00,
2013-12-17 21:06:00,67.8,62.1,30.03,NNE,15,4.1,5.8,82,0.00,CLR,,0.00,0.0,WeatherDisplay:10.37,2013-12-18 07:06:00,
2013-12-17 21:11:00,67.7,62.0,30.03,North,355,3.2,4.6,82,0.00,CLR,,0.00,0.0,WeatherDisplay:10.37,2013-12-18 07:11:00,
2013-12-17 21:16:00,67.6,61.9,30.04,NE,49,3.5,4.6,82,0.00,CLR,,0.00,0.0,WeatherDisplay:10.37,2013-12-18 07:16:00,
2013-12-17 21:21:00,67.6,61.9,30.04,NNE,32,3.9,5.8,82,0.00,CLR,,0.00,0.0,WeatherDisplay:10.37,2013-12-18 07:21:00,
2013-12-17 21:26:00,67.6,61.9,30.04,NNE,19,2.3,10.4,82,0.00,CLR,,0.00,0.0,WeatherDisplay:10.37,2013-12-18 07:26:00,
2013-12-17 21:31:00,67.7,62.0,30.04,NE,40,3.1,9.2,82,0.00,CLR,,0.00,0.0,WeatherDisplay:10.37,2013-12-18 07:31:00,
2013-12-17 21:36:00,67.7,61.7,30.04,NNW,341,3.1,6.0,81,0.00,CLR,,0.00,0.0,WeatherDisplay:10.37,2013-12-18 07:36:00,
2013-12-17 21:41:00,67.7,61.7,30.04,NNW,329,4.5,10.0,81,0.00,CLR,,0.00,0.0,WeatherDisplay:10.37,2013-12-18 07:41:00,
2013-12-17 21:46:00,67.7,61.7,30.04,NNE,25,0.5,3.5,81,0.00,CLR,,0.00,0.0,WeatherDisplay:10.37,2013-12-18 07:46:00,
2013-12-17 21:51:00,67.8,61.8,30.04,North,360,2.2,2.3,81,0.00,CLR,,0.00,0.0,WeatherDisplay:10.37,2013-12-18 07:51:00,
2013-12-17 21:56:00,67.8,61.8,30.05,ENE,61,1.7,3.5,81,0.00,CLR,,0.00,0.0,WeatherDisplay:10.37,2013-12-18 07:56:00,
2013-12-17 22:03:00,67.8,61.8,30.05,NNE,29,1.8,2.3,81,0.00,CLR,,0.00,0.0,WeatherDisplay:10.37,2013-12-18 08:03:00,
2013-12-17 22:08:00,67.8,61.8,30.05,North,5,1.1,2.3,81,0.00,CLR,,0.00,0.0,WeatherDisplay:10.37,2013-12-18 08:08:00,
2013-12-17 22:13:00,67.8,61.8,30.04,ENE,70,1.7,3.5,81,0.00,CLR,,0.00,0.0,WeatherDisplay:10.37,2013-12-18 08:13:00,
2013-12-17 22:18:00,67.8,61.4,30.05,NNE,30,3.2,9.2,80,0.00,CLR,,0.00,0.0,WeatherDisplay:10.37,2013-12-18 08:18:00,
2013-12-17 22:23:00,67.8,61.4,30.05,NE,51,2.4,3.5,80,0.00,CLR,,0.00,0.0,WeatherDisplay:10.37,2013-12-18 08:23:00,
2013-12-17 22:28:00,67.8,61.4,30.05,NE,40,2.0,3.5,80,0.00,CLR,,0.00,0.0,WeatherDisplay:10.37,2013-12-18 08:28:00,
2013-12-17 22:33:00,67.7,61.3,30.05,NE,46,2.7,4.6,80,0.00,CLR,,0.00,0.0,WeatherDisplay:10.37,2013-12-18 08:33:00,
2013-12-17 22:38:00,67.7,61.3,30.05,NE,45,3.5,4.6,80,0.00,CLR,,0.00,0.0,WeatherDisplay:10.37,2013-12-18 08:38:00,
2013-12-17 22:43:00,67.7,61.3,30.05,NE,55,2.5,4.6,80,0.00,CLR,,0.00,0.0,WeatherDisplay:10.37,2013-12-18 08:43:00,
2013-12-17 22:48:00,67.7,61.7,30.05,NE,44,2.9,9.2,81,0.00,CLR,,0.00,0.0,WeatherDisplay:10.37,2013-12-18 08:48:00,
2013-12-17 22:53:00,67.7,61.7,30.05,ENE,57,3.4,3.5,81,0.00,CLR,,0.00,0.0,WeatherDisplay:10.37,2013-12-18 08:53:00,
2013-12-17 22:58:00,67.7,61.7,30.05,NE,42,1.6,3.5,81,0.00,CLR,,0.00,0.0,WeatherDisplay:10.37,2013-12-18 08:58:00,
2013-12-17 23:03:00,67.7,61.7,30.05,North,355,2.4,6.9,81,0.00,CLR,,0.00,0.0,WeatherDisplay:10.37,2013-12-18 09:03:00,
2013-12-17 23:08:00,67.6,61.6,30.05,NE,36,4.5,4.5,81,0.00,CLR,,0.00,0.0,WeatherDisplay:10.37,2013-12-18 09:08:00,
2013-12-17 23:13:00,67.5,61.5,30.06,NE,49,2.5,2.5,81,0.00,CLR,,0.00,0.0,WeatherDisplay:10.37,2013-12-18 09:13:00,
2013-12-17 23:18:00,67.3,61.3,30.05,North,5,3.9,6.0,81,0.00,CLR,,0.00,0.0,WeatherDisplay:10.37,2013-12-18 09:18:00,
2013-12-17 23:23:00,67.2,61.2,30.05,North,5,3.3,5.8,81,0.00,CLR,,0.00,0.0,WeatherDisplay:10.37,2013-12-18 09:23:00,
2013-12-17 23:28:00,67.2,61.5,30.05,NE,51,2.3,10.4,82,0.00,CLR,,0.00,0.0,WeatherDisplay:10.37,2013-12-18 09:28:00,
2013-12-17 23:33:00,67.3,61.6,30.05,North,350,2.4,4.6,82,0.00,CLR,,0.00,0.0,WeatherDisplay:10.37,2013-12-18 09:33:00,
2013-12-17 23:38:00,67.4,61.7,30.05,NE,53,4.6,9.2,82,0.00,CLR,,0.00,0.0,WeatherDisplay:10.37,2013-12-18 09:38:00,
2013-12-17 23:43:00,67.6,61.9,30.05,ENE,65,2.9,5.8,82,0.00,CLR,,0.00,0.0,WeatherDisplay:10.37,2013-12-18 09:43:00,
2013-12-17 23:48:00,67.8,62.1,30.05,NE,47,4.8,8.1,82,0.00,CLR,,0.00,0.0,WeatherDisplay:10.37,2013-12-18 09:48:00,
2013-12-17 23:53:00,68.0,62.3,30.04,ENE,57,4.2,6.9,82,0.00,CLR,,0.00,0.0,WeatherDisplay:10.37,2013-12-18 09:53:00,
2013-12-17 23:58:00,68.0,62.3,30.04,North,360,2.2,9.2,82,0.00,CLR,,0.00,0.0,WeatherDisplay:10.37,2013-12-18 09:58:00,